Time;durP1;ratioP1;P1;durP2;ratioP2;P2;SDS_P1;SDS_P2;PMS_P1;PMS_P2;Temp;Humidity;BMP_temperature;BMP_pressure;BME280_temperature;BME280_humidity;BME280_pressure;Samples;Min_cycle;Max_cycle;Signal;HPM_P1;HPM_P2
2022/08/19 00:00:11;;;;;;;2.33;2.23;;;20.90;99.90;;;;;;5041888;28;20224;-60
2022/08/19 00:02:38;;;;;;;2.27;2.17;;;20.90;99.90;;;;;;5037744;28;20208;-60
2022/08/19 00:05:05;;;;;;;2.47;2.37;;;20.90;99.90;;;;;;5034158;28;20598;-61
2022/08/19 00:07:34;;;;;;;2.40;2.30;;;20.90;99.90;;;;;;5033989;28;20212;-60
2022/08/19 00:10:00;;;;;;;2.17;2.07;;;20.90;99.90;;;;;;5031123;28;20666;-60
2022/08/19 00:12:28;;;;;;;2.27;2.17;;;20.90;99.90;;;;;;5034085;28;20205;-61
2022/08/19 00:14:55;;;;;;;2.47;2.37;;;20.90;99.90;;;;;;5028477;28;20211;-61
2022/08/19 00:17:22;;;;;;;2.30;2.20;;;20.90;99.90;;;;;;5027934;28;20213;-61
2022/08/19 00:19:48;;;;;;;2.30;2.20;;;20.90;99.90;;;;;;5027249;28;20232;-60
2022/08/19 00:22:17;;;;;;;2.13;2.03;;;20.90;99.90;;;;;;5032017;28;20611;-61
2022/08/19 00:24:46;;;;;;;2.30;2.20;;;20.80;99.90;;;;;;5031302;28;20212;-61
2022/08/19 00:27:14;;;;;;;2.30;2.20;;;20.80;99.90;;;;;;5024042;28;20233;-60
2022/08/19 00:29:41;;;;;;;2.17;2.07;;;20.70;99.90;;;;;;5029873;28;20699;-60
2022/08/19 00:32:08;;;;;;;2.50;2.40;;;20.80;99.90;;;;;;5026928;28;20193;-60
2022/08/19 00:34:35;;;;;;;2.30;2.20;;;20.80;99.90;;;;;;5029465;28;20209;-61
2022/08/19 00:37:02;;;;;;;2.40;2.20;;;20.80;99.90;;;;;;5029574;28;20201;-60
2022/08/19 00:39:28;;;;;;;2.70;2.60;;;20.80;99.90;;;;;;5028069;28;20220;-60
2022/08/19 00:41:57;;;;;;;2.40;2.30;;;20.80;99.90;;;;;;5033038;28;20215;-61
2022/08/19 00:44:26;;;;;;;2.20;2.10;;;20.70;99.90;;;;;;5031288;28;20213;-61
2022/08/19 00:46:55;;;;;;;2.23;2.03;;;20.80;99.90;;;;;;5028853;28;20307;-61
2022/08/19 00:49:28;;;;;;;2.43;2.33;;;20.80;99.90;;;;;;5029329;28;20584;-59
2022/08/19 00:52:03;;;;;;;2.07;1.97;;;20.80;99.90;;;;;;5029860;28;20205;-60
2022/08/19 00:54:32;;;;;;;2.33;2.23;;;20.80;99.90;;;;;;5028448;28;20205;-61
2022/08/19 00:57:05;;;;;;;2.40;2.30;;;20.80;99.90;;;;;;5024903;28;20224;-60
2022/08/19 00:59:31;;;;;;;2.67;2.50;;;20.80;99.90;;;;;;5028296;28;20244;-60
2022/08/19 01:01:59;;;;;;;2.43;2.33;;;20.80;99.90;;;;;;5030232;28;20208;-61
2022/08/19 01:04:25;;;;;;;2.40;2.30;;;20.80;99.90;;;;;;5025820;28;20293;-60
2022/08/19 01:06:52;;;;;;;2.53;2.40;;;20.80;99.90;;;;;;5026527;28;20211;-61
2022/08/19 01:09:19;;;;;;;2.20;2.10;;;20.80;99.90;;;;;;5030000;28;20212;-61
2022/08/19 01:11:46;;;;;;;2.20;2.10;;;20.80;99.90;;;;;;5032753;28;20307;-62
2022/08/19 01:14:16;;;;;;;2.20;2.10;;;20.90;99.90;;;;;;5028495;28;20668;-59
2022/08/19 01:16:44;;;;;;;2.40;2.30;;;20.90;99.90;;;;;;5032061;28;20231;-62
2022/08/19 01:19:26;;;;;;;2.30;2.20;;;20.90;99.90;;;;;;5031987;28;20231;-61
2022/08/19 01:21:58;;;;;;;2.30;2.20;;;20.90;99.90;;;;;;5029092;28;20205;-62
2022/08/19 01:24:26;;;;;;;2.40;2.30;;;20.90;99.90;;;;;;5030526;28;20204;-60
2022/08/19 01:26:54;;;;;;;2.20;2.10;;;20.80;99.90;;;;;;5032976;28;20215;-61
2022/08/19 01:29:21;;;;;;;2.20;2.10;;;20.80;99.90;;;;;;5032647;28;20584;-61
2022/08/19 01:31:51;;;;;;;2.13;2.03;;;20.80;99.90;;;;;;5028135;28;20699;-61
2022/08/19 01:34:19;;;;;;;2.37;2.27;;;20.90;99.90;;;;;;5031734;28;20621;-59
2022/08/19 01:36:48;;;;;;;1.83;1.73;;;20.90;99.90;;;;;;5029502;28;20742;-62
2022/08/19 01:39:20;;;;;;;1.83;1.73;;;20.90;99.90;;;;;;5025369;28;20333;-61
2022/08/19 01:41:49;;;;;;;2.20;2.10;;;20.90;99.90;;;;;;5027830;28;20244;-61
2022/08/19 01:44:20;;;;;;;2.27;2.17;;;20.90;99.90;;;;;;5028325;28;20679;-62
2022/08/19 01:46:48;;;;;;;2.10;2.00;;;20.90;99.90;;;;;;5030265;28;20606;-62
2022/08/19 01:49:16;;;;;;;2.27;2.17;;;20.90;99.90;;;;;;5026668;28;20711;-62
2022/08/19 01:51:43;;;;;;;2.00;1.90;;;20.90;99.90;;;;;;5028091;28;20212;-62
2022/08/19 01:54:11;;;;;;;2.10;2.00;;;20.90;99.90;;;;;;5025340;28;20204;-61
2022/08/19 01:56:38;;;;;;;2.00;1.90;;;20.90;99.90;;;;;;5031873;28;20231;-61
2022/08/19 01:59:11;;;;;;;1.83;1.80;;;21.00;99.90;;;;;;5031461;28;20710;-62
2022/08/19 02:01:38;;;;;;;2.10;2.00;;;21.00;99.90;;;;;;5027957;28;20689;-62
2022/08/19 02:04:05;;;;;;;2.00;1.90;;;21.00;99.90;;;;;;5025182;28;20556;-62
2022/08/19 02:06:32;;;;;;;2.00;1.90;;;21.00;99.90;;;;;;5028687;28;20227;-62
2022/08/19 02:09:00;;;;;;;2.00;1.90;;;21.00;99.90;;;;;;5024702;28;20227;-62
2022/08/19 02:11:31;;;;;;;2.33;2.23;;;21.00;99.90;;;;;;5029163;28;20726;-62
2022/08/19 02:13:58;;;;;;;2.10;2.00;;;21.00;99.90;;;;;;5032372;28;20211;-62
2022/08/19 02:16:26;;;;;;;2.20;2.10;;;20.90;99.90;;;;;;5028385;28;20296;-62
2022/08/19 02:18:53;;;;;;;2.10;2.00;;;21.00;99.90;;;;;;5031776;28;20228;-62
2022/08/19 02:21:22;;;;;;;2.13;2.03;;;20.90;99.90;;;;;;5030991;28;20673;-62
2022/08/19 02:23:50;;;;;;;2.10;2.00;;;20.90;99.90;;;;;;5027925;28;20209;-62
2022/08/19 02:26:17;;;;;;;2.30;2.20;;;20.90;99.90;;;;;;5027298;28;20197;-62
2022/08/19 02:28:44;;;;;;;2.63;2.53;;;21.00;99.90;;;;;;5026336;28;20227;-62
2022/08/19 02:31:13;;;;;;;2.40;2.30;;;21.00;99.90;;;;;;5031842;28;20292;-62
2022/08/19 02:33:42;;;;;;;2.00;1.90;;;21.00;99.90;;;;;;5031919;28;20208;-62
2022/08/19 02:36:11;;;;;;;2.17;2.07;;;20.90;99.90;;;;;;5031400;28;20655;-62
2022/08/19 02:38:38;;;;;;;2.40;2.20;;;20.90;99.90;;;;;;5030466;28;20260;-61
2022/08/19 02:41:09;;;;;;;3.10;2.23;;;20.90;99.90;;;;;;5031534;28;20220;-62
2022/08/19 02:43:36;;;;;;;2.17;2.07;;;20.90;99.90;;;;;;5031645;28;20200;-61
2022/08/19 02:46:13;;;;;;;2.27;2.17;;;20.90;99.90;;;;;;5029528;28;20296;-61
2022/08/19 02:48:41;;;;;;;2.00;1.90;;;20.90;99.90;;;;;;5032032;28;20307;-62
2022/08/19 02:51:08;;;;;;;2.80;2.70;;;20.90;99.90;;;;;;5031866;28;20200;-61
2022/08/19 02:53:34;;;;;;;2.40;2.30;;;21.00;99.90;;;;;;5032224;28;20303;-61
2022/08/19 02:56:01;;;;;;;2.40;2.30;;;21.00;99.90;;;;;;5031629;28;20255;-62
2022/08/19 02:58:28;;;;;;;2.33;2.23;;;21.00;99.90;;;;;;5031392;28;20240;-61
2022/08/19 03:00:57;;;;;;;2.23;2.13;;;21.10;99.90;;;;;;5031817;28;20690;-61
2022/08/19 03:03:24;;;;;;;2.07;1.97;;;21.00;99.90;;;;;;5023871;28;20295;-62
2022/08/19 03:05:52;;;;;;;2.10;2.00;;;21.10;99.90;;;;;;5031323;28;20242;-61
2022/08/19 03:08:20;;;;;;;4.37;2.53;;;21.10;99.90;;;;;;5031097;28;20216;-61
2022/08/19 03:10:48;;;;;;;2.10;2.00;;;21.10;99.90;;;;;;5030095;28;20678;-62
2022/08/19 03:13:18;;;;;;;1.80;1.80;;;21.10;99.90;;;;;;5031457;28;20211;-61
2022/08/19 03:15:47;;;;;;;2.20;2.10;;;21.10;99.90;;;;;;5031441;28;20204;-62
2022/08/19 03:18:15;;;;;;;2.60;2.50;;;21.10;99.90;;;;;;5031580;28;20311;-62
2022/08/19 03:20:44;;;;;;;2.43;2.33;;;21.00;99.90;;;;;;5031117;28;20227;-62
2022/08/19 03:23:13;;;;;;;2.30;2.20;;;21.00;99.90;;;;;;5031502;28;20295;-62
2022/08/19 03:25:43;;;;;;;2.40;2.30;;;21.10;99.90;;;;;;5031548;28;20579;-62
2022/08/19 03:28:11;;;;;;;2.30;2.20;;;21.00;99.90;;;;;;5031385;28;20589;-61
2022/08/19 03:30:39;;;;;;;2.90;2.80;;;21.00;99.90;;;;;;5031209;28;20201;-62
2022/08/19 03:33:06;;;;;;;2.53;2.43;;;21.00;99.90;;;;;;5031439;28;20208;-61
2022/08/19 03:35:36;;;;;;;3.17;2.97;;;20.90;99.90;;;;;;5033335;28;20590;-61
2022/08/19 03:38:03;;;;;;;2.70;2.50;;;20.90;99.90;;;;;;5035567;28;20315;-62
2022/08/19 03:40:31;;;;;;;2.30;2.20;;;20.90;99.90;;;;;;5033872;28;20225;-62
2022/08/19 03:42:58;;;;;;;3.00;2.80;;;20.90;99.90;;;;;;5035400;28;20208;-62
2022/08/19 03:45:25;;;;;;;2.53;2.43;;;20.90;99.90;;;;;;5029162;28;20210;-62
2022/08/19 03:47:52;;;;;;;2.40;2.30;;;21.00;99.90;;;;;;5035142;28;20205;-62
2022/08/19 03:50:19;;;;;;;2.40;2.30;;;21.10;99.90;;;;;;5035352;28;20216;-62
2022/08/19 03:52:49;;;;;;;2.70;2.60;;;21.10;99.90;;;;;;5035255;28;20204;-61
2022/08/19 03:55:16;;;;;;;2.50;2.40;;;21.10;99.90;;;;;;5034708;28;20203;-61
2022/08/19 03:57:47;;;;;;;2.80;2.70;;;21.10;99.90;;;;;;5034696;28;20213;-62
2022/08/19 04:00:15;;;;;;;2.90;2.80;;;21.10;99.90;;;;;;5033011;28;20412;-62
2022/08/19 04:02:43;;;;;;;3.23;3.03;;;21.00;99.90;;;;;;5033121;28;20625;-62
2022/08/19 04:05:10;;;;;;;3.50;3.30;;;21.00;99.90;;;;;;5034601;28;20240;-62
2022/08/19 04:07:37;;;;;;;3.00;2.90;;;20.90;99.90;;;;;;5035094;28;20300;-63
2022/08/19 04:10:05;;;;;;;3.40;3.20;;;20.90;99.90;;;;;;5033549;28;20208;-61
2022/08/19 04:12:32;;;;;;;2.70;2.60;;;21.00;99.90;;;;;;5029880;28;20197;-62
2022/08/19 04:15:00;;;;;;;3.40;3.20;;;21.00;99.90;;;;;;5034532;28;20201;-62
2022/08/19 04:17:27;;;;;;;2.83;2.73;;;20.90;99.90;;;;;;5034898;28;20216;-62
2022/08/19 04:19:53;;;;;;;2.60;2.50;;;20.90;99.90;;;;;;5034732;28;20232;-61
2022/08/19 04:22:20;;;;;;;2.70;2.60;;;21.00;99.90;;;;;;5034550;28;20581;-62
2022/08/19 04:24:47;;;;;;;2.97;2.87;;;21.00;99.90;;;;;;5034328;28;20209;-62
2022/08/19 04:27:16;;;;;;;2.57;2.47;;;21.00;99.90;;;;;;5034860;28;20236;-62
2022/08/19 04:29:43;;;;;;;3.00;2.80;;;21.00;99.90;;;;;;5034143;28;20311;-62
2022/08/19 04:32:11;;;;;;;2.57;2.47;;;21.00;99.90;;;;;;5034206;28;20757;-62
2022/08/19 04:34:38;;;;;;;2.50;2.40;;;21.10;99.90;;;;;;5034639;28;20212;-61
2022/08/19 04:37:12;;;;;;;2.60;2.50;;;21.10;99.90;;;;;;5034780;28;20303;-62
2022/08/19 04:45:15;;;;;;;2.53;2.43;;;21.20;99.90;;;;;;5014396;28;20253;-62
2022/08/19 04:47:44;;;;;;;2.70;2.60;;;21.20;99.90;;;;;;5034611;28;20209;-61
2022/08/19 04:50:12;;;;;;;2.70;2.60;;;21.10;99.90;;;;;;5033897;28;20201;-62
2022/08/19 04:52:42;;;;;;;3.10;3.00;;;21.20;99.90;;;;;;5033944;28;20706;-62
2022/08/19 04:55:10;;;;;;;3.00;2.90;;;21.10;99.90;;;;;;5033840;28;20228;-63
2022/08/19 04:57:39;;;;;;;2.90;2.80;;;21.00;99.90;;;;;;5034543;28;20252;-61
2022/08/19 05:00:07;;;;;;;2.70;2.60;;;21.00;99.90;;;;;;5034288;28;20221;-61
2022/08/19 05:02:34;;;;;;;2.60;2.50;;;21.00;99.90;;;;;;5033773;28;20209;-62
2022/08/19 05:05:03;;;;;;;2.47;2.37;;;21.10;99.90;;;;;;5033342;28;20235;-62
2022/08/19 05:07:30;;;;;;;2.60;2.50;;;21.00;99.90;;;;;;5033690;28;20287;-62
2022/08/19 05:09:57;;;;;;;2.70;2.50;;;21.00;99.90;;;;;;5032413;28;20279;-62
2022/08/19 05:12:24;;;;;;;2.63;2.53;;;21.10;99.90;;;;;;5033550;28;20220;-62
2022/08/19 05:14:51;;;;;;;2.63;2.53;;;21.10;99.90;;;;;;5033324;28;20201;-62
2022/08/19 05:17:18;;;;;;;2.80;2.60;;;21.10;99.90;;;;;;5033485;28;20201;-62
2022/08/19 05:22:34;;;;;;;2.90;2.80;;;21.10;99.90;;;;;;5031823;28;20204;-60
2022/08/19 05:25:04;;;;;;;2.80;2.70;;;21.10;99.90;;;;;;5033699;28;20209;-63
2022/08/19 05:27:30;;;;;;;2.83;2.73;;;21.10;99.90;;;;;;5033326;28;20207;-62
2022/08/19 05:29:57;;;;;;;3.23;3.13;;;21.10;99.90;;;;;;5032927;28;20587;-63
2022/08/19 05:32:24;;;;;;;3.47;3.27;;;21.10;99.90;;;;;;5032906;28;20211;-62
2022/08/19 05:34:51;;;;;;;3.27;3.07;;;21.00;99.90;;;;;;5033281;28;20209;-62
2022/08/19 05:37:18;;;;;;;2.87;2.77;;;21.00;99.90;;;;;;5033893;28;20201;-61
2022/08/19 05:39:46;;;;;;;3.10;2.80;;;21.00;99.90;;;;;;5033128;28;21122;-61
2022/08/19 05:42:14;;;;;;;3.20;3.10;;;20.90;99.90;;;;;;5033232;28;20204;-61
2022/08/19 05:44:43;;;;;;;3.10;2.90;;;20.90;99.90;;;;;;5026920;28;20754;-62
2022/08/19 05:47:11;;;;;;;3.00;2.90;;;21.00;99.90;;;;;;5033347;28;20208;-62
2022/08/19 05:49:38;;;;;;;2.50;2.40;;;20.90;99.90;;;;;;5032790;28;20232;-62
2022/08/19 05:52:07;;;;;;;2.70;2.60;;;20.90;99.90;;;;;;5033192;28;20204;-61
2022/08/19 05:54:35;;;;;;;2.70;2.60;;;20.90;99.90;;;;;;5033239;28;20201;-62
2022/08/19 05:57:04;;;;;;;2.93;2.83;;;20.90;99.90;;;;;;5032998;28;20701;-62
2022/08/19 05:59:30;;;;;;;2.87;2.70;;;20.90;99.90;;;;;;5031388;28;20228;-62
2022/08/19 06:01:57;;;;;;;2.90;2.80;;;21.00;99.90;;;;;;5026647;28;20657;-60
2022/08/19 06:04:25;;;;;;;2.80;2.70;;;21.00;99.90;;;;;;5030738;28;20204;-63
2022/08/19 06:06:53;;;;;;;3.07;2.97;;;21.00;99.90;;;;;;5029666;28;20671;-60
2022/08/19 06:09:21;;;;;;;3.20;3.00;;;21.00;99.90;;;;;;5032746;28;20224;-61
2022/08/19 06:11:53;;;;;;;2.63;2.53;;;21.00;99.90;;;;;;5028132;28;20200;-60
2022/08/19 06:14:24;;;;;;;3.30;3.10;;;21.00;99.90;;;;;;5031980;28;20324;-62
2022/08/19 06:16:52;;;;;;;3.00;2.90;;;21.10;99.90;;;;;;5025220;28;20200;-62
2022/08/19 06:19:21;;;;;;;2.63;2.53;;;21.00;99.90;;;;;;5028567;28;20228;-62
2022/08/19 06:21:50;;;;;;;2.90;2.80;;;21.00;99.90;;;;;;5032348;28;20315;-62
2022/08/19 06:24:20;;;;;;;2.90;2.80;;;21.00;99.90;;;;;;5031717;28;20299;-61
2022/08/19 06:26:49;;;;;;;3.00;2.90;;;21.00;99.90;;;;;;5032217;28;20211;-61
2022/08/19 06:29:17;;;;;;;3.40;3.30;;;21.00;99.90;;;;;;5032084;28;20220;-62
2022/08/19 06:31:49;;;;;;;3.17;3.07;;;21.00;99.90;;;;;;5032128;28;20228;-61
2022/08/19 06:34:17;;;;;;;3.10;3.00;;;21.00;99.90;;;;;;5032124;28;20193;-61
2022/08/19 06:36:47;;;;;;;3.07;2.93;;;21.00;99.90;;;;;;5031871;28;20208;-61
2022/08/19 06:39:17;;;;;;;2.90;2.80;;;21.00;99.90;;;;;;5031945;28;20232;-62
2022/08/19 06:41:46;;;;;;;3.33;3.13;;;21.10;99.90;;;;;;5030816;28;20227;-62
2022/08/19 06:44:14;;;;;;;2.87;2.77;;;21.10;99.90;;;;;;5031873;28;20303;-62
2022/08/19 06:46:41;;;;;;;3.27;3.17;;;21.10;99.90;;;;;;5032207;28;20209;-62
2022/08/19 06:49:13;;;;;;;3.30;3.10;;;21.10;99.90;;;;;;5032157;28;20226;-62
2022/08/19 06:51:41;;;;;;;3.00;2.90;;;21.20;99.90;;;;;;5031295;28;20970;-62
2022/08/19 06:54:07;;;;;;;3.10;3.00;;;21.30;99.90;;;;;;5031623;28;20211;-62
2022/08/19 06:56:34;;;;;;;3.00;2.90;;;21.30;99.90;;;;;;5032174;28;20222;-61
2022/08/19 06:59:03;;;;;;;3.83;3.63;;;21.40;99.90;;;;;;5032018;28;20227;-62
2022/08/19 07:01:30;;;;;;;3.77;3.57;;;21.40;99.90;;;;;;5031343;28;20247;-62
2022/08/19 07:03:57;;;;;;;3.27;3.17;;;21.40;99.90;;;;;;5031330;28;20661;-62
2022/08/19 07:06:25;;;;;;;3.80;3.60;;;21.40;99.90;;;;;;5028003;28;20583;-62
2022/08/19 07:08:52;;;;;;;3.90;3.70;;;21.40;99.90;;;;;;5030891;28;20307;-62
2022/08/19 07:11:20;;;;;;;4.10;3.90;;;21.50;99.90;;;;;;5030583;28;20240;-63
2022/08/19 07:13:48;;;;;;;3.63;3.43;;;21.50;99.90;;;;;;5031283;28;20223;-62
2022/08/19 07:16:19;;;;;;;3.77;3.57;;;21.50;99.90;;;;;;5031388;28;20201;-62
2022/08/19 07:18:46;;;;;;;3.70;3.50;;;21.50;99.90;;;;;;5028004;28;20228;-60
2022/08/19 07:21:15;;;;;;;3.90;3.70;;;21.50;99.90;;;;;;5029985;28;20702;-62
2022/08/19 07:23:44;;;;;;;3.70;3.50;;;21.60;99.90;;;;;;5020152;28;20205;-62
2022/08/19 07:26:14;;;;;;;3.90;3.70;;;21.60;99.90;;;;;;5028462;28;20567;-62
2022/08/19 07:28:43;;;;;;;3.90;3.70;;;21.60;99.90;;;;;;5025938;28;20223;-62
2022/08/19 07:31:12;;;;;;;4.00;3.80;;;21.60;99.90;;;;;;5028952;28;20212;-60
2022/08/19 07:33:39;;;;;;;3.70;3.40;;;21.60;99.90;;;;;;5030575;28;20201;-61
2022/08/19 07:36:11;;;;;;;4.10;3.90;;;21.60;99.90;;;;;;5030960;28;20200;-61
2022/08/19 07:38:38;;;;;;;3.70;3.50;;;21.70;99.90;;;;;;5031345;28;20311;-61
2022/08/19 07:41:07;;;;;;;4.30;4.10;;;21.80;99.90;;;;;;5028892;28;20694;-61
2022/08/19 07:43:34;;;;;;;4.10;3.90;;;21.70;99.90;;;;;;5030895;28;20212;-62
2022/08/19 07:46:01;;;;;;;3.90;3.60;;;21.70;99.90;;;;;;5026107;28;20205;-61
2022/08/19 07:48:29;;;;;;;4.83;4.53;;;21.80;99.90;;;;;;5031230;28;20239;-60
2022/08/19 07:50:59;;;;;;;3.37;3.27;;;21.80;99.90;;;;;;5036363;28;20203;-63
2022/08/19 07:53:26;;;;;;;4.07;3.87;;;21.80;99.90;;;;;;5030727;28;20200;-60
2022/08/19 07:55:53;;;;;;;4.17;3.97;;;21.90;99.90;;;;;;5031019;28;20240;-62
2022/08/19 07:58:22;;;;;;;4.30;4.10;;;21.90;99.90;;;;;;5029744;28;20568;-62
2022/08/19 08:00:51;;;;;;;4.13;3.93;;;21.90;99.90;;;;;;5031112;28;20224;-61
2022/08/19 08:09:10;;;;;;;4.20;4.00;;;21.90;99.90;;;;;;5030905;28;20231;-62
2022/08/19 08:11:37;;;;;;;3.70;3.50;;;22.00;99.90;;;;;;5023183;28;20647;-61
2022/08/19 08:14:05;;;;;;;4.20;4.00;;;22.10;99.90;;;;;;5031039;28;20611;-62
2022/08/19 08:16:35;;;;;;;4.03;3.83;;;22.00;99.90;;;;;;5030987;28;20213;-62
2022/08/19 08:19:02;;;;;;;3.93;3.73;;;22.00;99.90;;;;;;5030753;28;20239;-61
2022/08/19 08:21:29;;;;;;;4.30;4.10;;;22.00;99.90;;;;;;5034685;28;20225;-60
2022/08/19 08:23:56;;;;;;;4.10;3.73;;;21.90;99.90;;;;;;5030905;28;20227;-60
2022/08/19 08:26:24;;;;;;;4.50;4.30;;;21.90;99.90;;;;;;5027439;28;20208;-63
2022/08/19 08:28:51;;;;;;;4.40;4.20;;;22.00;99.90;;;;;;5034115;28;20224;-61
2022/08/19 08:31:20;;;;;;;3.70;3.50;;;22.00;99.90;;;;;;5033814;28;20664;-61
2022/08/19 08:33:47;;;;;;;3.60;3.40;;;22.20;99.90;;;;;;5035037;28;20208;-62
2022/08/19 08:36:15;;;;;;;4.17;3.97;;;22.20;99.90;;;;;;5034174;28;20287;-62
2022/08/19 08:38:45;;;;;;;4.50;4.30;;;22.30;99.90;;;;;;5032442;28;20747;-62
2022/08/19 08:41:20;;;;;;;4.30;4.10;;;22.30;99.90;;;;;;5031410;28;20212;-62
2022/08/19 08:43:50;;;;;;;4.30;4.00;;;22.30;99.90;;;;;;5030960;28;20204;-62
2022/08/19 08:46:23;;;;;;;3.27;3.13;;;22.30;99.90;;;;;;5032983;28;20211;-62
2022/08/19 08:48:54;;;;;;;3.87;3.67;;;22.40;99.90;;;;;;5033950;28;20223;-62
2022/08/19 08:51:26;;;;;;;3.97;3.77;;;22.50;99.90;;;;;;5036328;28;20197;-62
2022/08/19 08:53:54;;;;;;;3.90;3.70;;;22.50;99.90;;;;;;5035314;28;20204;-62
2022/08/19 08:56:22;;;;;;;3.60;3.40;;;22.60;99.90;;;;;;5035676;28;20215;-62
2022/08/19 08:58:57;;;;;;;4.13;3.93;;;22.60;99.90;;;;;;5033913;28;20251;-62
2022/08/19 09:01:25;;;;;;;3.67;3.47;;;22.70;99.90;;;;;;5036923;28;20825;-62
2022/08/19 09:03:52;;;;;;;3.77;3.57;;;22.80;99.90;;;;;;5034023;28;20200;-62
2022/08/19 09:06:29;;;;;;;3.87;3.67;;;22.80;99.90;;;;;;5033741;28;20215;-62
2022/08/19 09:09:04;;;;;;;3.53;3.33;;;22.90;99.90;;;;;;5031412;28;20228;-62
2022/08/19 09:11:45;;;;;;;3.30;3.20;;;23.00;99.90;;;;;;5030009;28;20192;-62
2022/08/19 09:14:30;;;;;;;4.03;3.73;;;23.10;99.90;;;;;;5032989;28;20209;-61
2022/08/19 09:17:00;;;;;;;3.37;3.27;;;23.20;99.90;;;;;;5031665;28;20543;-61
2022/08/19 09:19:27;;;;;;;3.77;3.57;;;23.30;99.90;;;;;;5031939;28;20227;-61
2022/08/19 09:21:54;;;;;;;3.53;3.33;;;23.50;99.90;;;;;;5036739;28;20589;-60
2022/08/19 09:24:21;;;;;;;3.40;3.23;;;23.60;99.90;;;;;;5029725;28;20212;-61
2022/08/19 09:26:48;;;;;;;4.10;3.90;;;23.80;99.90;;;;;;5036820;28;20252;-61
2022/08/19 09:29:15;;;;;;;3.70;3.50;;;23.80;99.90;;;;;;5039585;28;20314;-61
2022/08/19 09:31:41;;;;;;;3.90;3.70;;;23.80;99.90;;;;;;5036657;28;20200;-60
2022/08/19 09:34:10;;;;;;;3.73;3.53;;;23.90;99.90;;;;;;5033166;28;20224;-61
2022/08/19 09:36:38;;;;;;;3.80;3.53;;;24.10;99.90;;;;;;5034409;28;20228;-61
2022/08/19 09:39:06;;;;;;;3.30;3.20;;;24.30;99.90;;;;;;5031773;28;20574;-61
2022/08/19 09:41:34;;;;;;;2.90;2.80;;;24.40;99.90;;;;;;5031843;28;20323;-63
2022/08/19 09:44:00;;;;;;;3.50;3.30;;;24.50;99.90;;;;;;5036151;28;20239;-61
2022/08/19 09:46:30;;;;;;;3.60;3.40;;;24.50;99.90;;;;;;5032468;28;20205;-61
2022/08/19 09:49:01;;;;;;;3.30;3.20;;;24.50;99.90;;;;;;5035575;28;20278;-61
2022/08/19 09:51:29;;;;;;;3.37;3.27;;;24.40;99.90;;;;;;5032893;28;20736;-61
2022/08/19 09:54:01;;;;;;;3.90;3.60;;;24.40;99.90;;;;;;5037547;28;20300;-60
2022/08/19 09:56:28;;;;;;;3.47;3.37;;;24.30;99.90;;;;;;5028517;28;20201;-61
2022/08/19 09:58:54;;;;;;;3.40;3.30;;;24.30;99.90;;;;;;5032939;28;20221;-61
2022/08/19 10:01:24;;;;;;;3.50;3.30;;;24.50;99.90;;;;;;5031930;28;20225;-61
2022/08/19 10:03:53;;;;;;;3.80;3.60;;;24.50;99.90;;;;;;5032434;28;20312;-61
2022/08/19 10:06:21;;;;;;;3.97;3.77;;;24.50;99.90;;;;;;5035042;28;20349;-61
2022/08/19 10:08:50;;;;;;;3.73;3.50;;;24.50;99.90;;;;;;5030036;28;20232;-61
2022/08/19 10:11:18;;;;;;;3.20;3.10;;;24.50;99.90;;;;;;5031454;28;20204;-61
2022/08/19 10:13:45;;;;;;;4.03;3.30;;;24.30;99.90;;;;;;5031465;28;20240;-61
2022/08/19 10:16:17;;;;;;;3.50;3.30;;;24.20;99.90;;;;;;5031298;28;20219;-61
2022/08/19 10:18:44;;;;;;;3.40;3.20;;;24.20;99.90;;;;;;5032471;28;20282;-61
2022/08/19 10:21:16;;;;;;;3.40;3.20;;;24.20;99.90;;;;;;5032956;28;20213;-61
2022/08/19 10:23:47;;;;;;;3.20;3.00;;;24.20;99.90;;;;;;5030725;28;20208;-61
2022/08/19 10:26:17;;;;;;;3.20;3.00;;;24.30;99.90;;;;;;5031111;28;20291;-61
2022/08/19 10:28:44;;;;;;;2.83;2.70;;;24.40;99.90;;;;;;5032918;28;20232;-61
2022/08/19 10:31:13;;;;;;;2.80;2.70;;;24.50;99.90;;;;;;5029500;28;20208;-61
2022/08/19 10:33:41;;;;;;;2.47;2.37;;;24.60;99.90;;;;;;5031546;28;20638;-61
2022/08/19 10:36:10;;;;;;;3.03;2.93;;;24.50;99.90;;;;;;5029736;28;20719;-61
2022/08/19 10:38:37;;;;;;;2.53;2.43;;;24.40;99.90;;;;;;5030343;28;20236;-62
2022/08/19 10:41:09;;;;;;;2.60;2.50;;;24.40;99.90;;;;;;5026698;28;20316;-61
2022/08/19 10:43:39;;;;;;;2.70;2.60;;;24.40;99.90;;;;;;5029377;28;20623;-61
2022/08/19 10:46:07;;;;;;;2.70;2.60;;;24.30;99.90;;;;;;5029485;28;20211;-61
2022/08/19 10:48:34;;;;;;;2.60;2.50;;;24.30;99.90;;;;;;5031615;28;20228;-61
2022/08/19 10:53:46;;;;;;;2.40;2.30;;;24.30;99.90;;;;;;5028604;28;20280;-61
2022/08/19 10:59:00;;;;;;;2.20;2.10;;;24.50;99.90;;;;;;5031638;28;20315;-61
2022/08/19 11:01:27;;;;;;;2.20;2.10;;;24.70;99.90;;;;;;5029831;28;20288;-61
2022/08/19 11:03:54;;;;;;;3.63;2.40;;;24.80;99.90;;;;;;5031051;28;20303;-61
2022/08/19 11:06:21;;;;;;;2.10;2.00;;;24.80;99.90;;;;;;5031515;28;20205;-61
2022/08/19 11:08:48;;;;;;;2.43;2.30;;;24.90;99.90;;;;;;5029754;28;20235;-61
2022/08/19 11:11:15;;;;;;;2.90;2.70;;;25.00;99.90;;;;;;5030393;28;20251;-61
2022/08/19 11:13:42;;;;;;;2.22;2.13;;;25.10;99.90;;;;;;5029222;28;20554;-61
2022/08/19 11:16:13;;;;;;;4.77;2.50;;;25.10;99.90;;;;;;5030156;28;20610;-61
2022/08/19 11:18:43;;;;;;;2.23;2.13;;;25.20;99.90;;;;;;5031207;28;20225;-61
2022/08/19 11:21:13;;;;;;;2.53;2.37;;;25.30;99.90;;;;;;5031470;28;20200;-61
2022/08/19 11:23:40;;;;;;;2.20;2.10;;;25.30;99.90;;;;;;5021748;28;20227;-61
2022/08/19 11:26:07;;;;;;;2.10;2.00;;;25.40;99.90;;;;;;5029760;28;20258;-61
2022/08/19 11:28:34;;;;;;;2.10;2.00;;;25.50;99.90;;;;;;5031958;28;20220;-62
2022/08/19 11:31:03;;;;;;;2.40;2.20;;;25.40;99.90;;;;;;5030198;28;20210;-64
2022/08/19 11:33:32;;;;;;;2.60;2.50;;;25.50;99.90;;;;;;5023838;28;20200;-62
2022/08/19 11:36:00;;;;;;;2.00;1.90;;;25.50;99.90;;;;;;5031371;28;20201;-62
2022/08/19 11:38:28;;;;;;;2.50;2.40;;;25.50;99.90;;;;;;5022497;28;20216;-62
2022/08/19 11:40:59;;;;;;;2.13;2.03;;;25.50;99.90;;;;;;5030651;28;20582;-61
2022/08/19 11:43:26;;;;;;;2.10;2.00;;;25.60;99.90;;;;;;5031072;28;20217;-61
2022/08/19 11:45:54;;;;;;;2.05;1.95;;;25.70;99.90;;;;;;5031314;28;20211;-61
2022/08/19 11:48:22;;;;;;;2.10;2.00;;;25.80;99.90;;;;;;5031438;28;20228;-62
2022/08/19 11:50:50;;;;;;;2.10;2.00;;;25.80;99.90;;;;;;5031993;28;20207;-61
2022/08/19 11:53:18;;;;;;;2.00;1.90;;;25.90;99.90;;;;;;5031265;28;20202;-60
2022/08/19 11:55:45;;;;;;;1.95;1.85;;;25.90;99.90;;;;;;5034063;28;20204;-61
2022/08/19 11:58:12;;;;;;;2.28;2.00;;;25.90;99.90;;;;;;5035233;28;20260;-61
2022/08/19 12:00:39;;;;;;;1.52;1.52;;;25.90;99.90;;;;;;5035265;28;20287;-61
2022/08/19 12:03:07;;;;;;;1.90;1.60;;;26.00;99.90;;;;;;5032693;28;20263;-62
2022/08/19 12:05:34;;;;;;;1.63;1.63;;;26.10;99.90;;;;;;5034985;28;20209;-62
2022/08/19 12:08:02;;;;;;;2.00;1.90;;;26.20;99.90;;;;;;5034508;28;20224;-62
2022/08/19 12:10:29;;;;;;;1.85;1.75;;;26.30;99.90;;;;;;5027819;28;20236;-62
2022/08/19 12:12:56;;;;;;;2.20;2.10;;;26.40;99.90;;;;;;5028949;28;20196;-61
2022/08/19 12:15:23;;;;;;;2.10;2.00;;;26.40;99.90;;;;;;5031676;28;20209;-61
2022/08/19 12:17:50;;;;;;;1.90;1.80;;;26.40;99.90;;;;;;5034826;28;20204;-62
2022/08/19 12:20:16;;;;;;;2.13;2.03;;;26.40;99.90;;;;;;5034511;28;20215;-61
2022/08/19 12:22:44;;;;;;;2.35;2.15;;;26.40;99.90;;;;;;5034723;28;20221;-62
2022/08/19 12:25:12;;;;;;;2.10;2.00;;;26.40;99.90;;;;;;5034852;28;20305;-62
2022/08/19 12:27:39;;;;;;;2.00;1.90;;;26.40;99.90;;;;;;5034651;28;20204;-62
2022/08/19 12:30:10;;;;;;;2.10;2.00;;;26.40;99.90;;;;;;5034811;28;20648;-62
2022/08/19 12:32:37;;;;;;;2.10;2.00;;;26.40;99.90;;;;;;5034791;28;20204;-63
2022/08/19 12:35:04;;;;;;;1.80;1.80;;;26.30;99.90;;;;;;5034281;28;20205;-60
2022/08/19 12:37:32;;;;;;;2.00;1.90;;;26.40;99.90;;;;;;5030235;28;20695;-60
2022/08/19 12:39:59;;;;;;;1.98;1.88;;;26.40;99.90;;;;;;5035305;28;20220;-60
2022/08/19 12:42:28;;;;;;;1.48;1.48;;;26.40;99.90;;;;;;5033453;28;20252;-61
2022/08/19 12:44:55;;;;;;;2.00;1.90;;;26.50;99.90;;;;;;5034694;28;20209;-61
2022/08/19 12:47:22;;;;;;;2.40;2.30;;;26.50;99.90;;;;;;5034826;28;20215;-61
2022/08/19 12:49:49;;;;;;;2.03;1.93;;;26.50;99.90;;;;;;5033846;28;20255;-60
2022/08/19 12:52:16;;;;;;;1.70;1.60;;;26.50;99.90;;;;;;5034642;28;20193;-63
2022/08/19 12:54:43;;;;;;;1.65;1.63;;;26.60;99.90;;;;;;5034273;28;20288;-62
2022/08/19 12:57:11;;;;;;;1.50;1.50;;;26.90;99.90;;;;;;5034393;28;20258;-60
2022/08/19 12:59:41;;;;;;;1.90;1.80;;;27.30;99.90;;;;;;5034878;28;20872;-62
2022/08/19 13:02:08;;;;;;;1.63;1.63;;;27.50;99.90;;;;;;5034107;28;20204;-62
2022/08/19 13:04:40;;;;;;;1.90;1.80;;;27.60;99.90;;;;;;5034184;28;20204;-62
2022/08/19 13:07:07;;;;;;;1.83;1.73;;;27.70;99.90;;;;;;5033831;28;20299;-63
2022/08/19 13:09:34;;;;;;;1.50;1.50;;;28.00;99.90;;;;;;5028838;28;20231;-62
2022/08/19 13:12:06;;;;;;;1.70;1.60;;;28.20;99.90;;;;;;5033641;28;20203;-60